Aviation Digital Data Service (ADDS)

Output produced by METARs form (0454 UTC 16 February 2019)
found at http://www.aviationweather.gov/metar/data/
 
METAR text: RCKH 160430Z 23007KT 200V280 9999 FEW015 SCT030 BKN100 28/17 Q1018 NOSIG RMK A3006
Conditions at: RCKH (KAOHSIUNG INTL , TW) observed 0430 UTC 16 February 2019
Temperature: 28.0°C (82°F)
Dewpoint: 17.0°C (63°F) [RH = 51%]
Pressure (altimeter): 30.06 inches Hg (1018.0 mb)
Winds: from the SW (230 degrees) at 8 MPH (7 knots; 3.6 m/s)
Visibility: 6 or more miles (10+ km)
Ceiling: 10000 feet AGL
Clouds: few clouds at 1500 feet AGL
scattered clouds at 3000 feet AGL
broken clouds at 10000 feet AGL
Weather: no significant weather observed at this time

METAR text: RCKH 160400Z 32006KT 280V010 9999 FEW015 BKN030 BKN120 27/18 Q1018 NOSIG RMK A3008
Conditions at: RCKH (KAOHSIUNG INTL , TW) observed 0400 UTC 16 February 2019
Temperature: 27.0°C (81°F)
Dewpoint: 18.0°C (64°F) [RH = 58%]
Pressure (altimeter): 30.06 inches Hg (1018.0 mb)
Winds: from the NW (320 degrees) at 7 MPH (6 knots; 3.1 m/s)
Visibility: 6 or more miles (10+ km)
Ceiling: 3000 feet AGL
Clouds: few clouds at 1500 feet AGL
broken clouds at 3000 feet AGL
broken clouds at 12000 feet AGL
Weather: no significant weather observed at this time

METAR text: RCKH 160330Z 27004KT 200V340 9999 FEW015 SCT030 BKN120 28/18 Q1019 NOSIG RMK A3009
Conditions at: RCKH (KAOHSIUNG INTL , TW) observed 0330 UTC 16 February 2019
Temperature: 28.0°C (82°F)
Dewpoint: 18.0°C (64°F) [RH = 55%]
Pressure (altimeter): 30.09 inches Hg (1019.0 mb)
Winds: from the W (270 degrees) at 5 MPH (4 knots; 2.1 m/s)
Visibility: 6 or more miles (10+ km)
Ceiling: 12000 feet AGL
Clouds: few clouds at 1500 feet AGL
scattered clouds at 3000 feet AGL
broken clouds at 12000 feet AGL
Weather: no significant weather observed at this time

METAR text: RCKH 160300Z VRB03KT 9999 FEW013 SCT030 BKN200 27/17 Q1019 NOSIG RMK A3011
Conditions at: RCKH (KAOHSIUNG INTL , TW) observed 0300 UTC 16 February 2019
Temperature: 27.0°C (81°F)
Dewpoint: 17.0°C (63°F) [RH = 54%]
Pressure (altimeter): 30.09 inches Hg (1019.0 mb)
Winds: variable direction winds at 3 MPH (3 knots; 1.5 m/s)
Visibility: 6 or more miles (10+ km)
Ceiling: 20000 feet AGL
Clouds: few clouds at 1300 feet AGL
scattered clouds at 3000 feet AGL
broken clouds at 20000 feet AGL
Weather: no significant weather observed at this time

METAR text: RCKH 160230Z 33006KT 300V030 9000 FEW013 SCT030 BKN220 26/18 Q1020 NOSIG RMK A3012
Conditions at: RCKH (KAOHSIUNG INTL , TW) observed 0230 UTC 16 February 2019
Temperature: 26.0°C (79°F)
Dewpoint: 18.0°C (64°F) [RH = 61%]
Pressure (altimeter): 30.12 inches Hg (1020.0 mb)
Winds: from the NNW (330 degrees) at 7 MPH (6 knots; 3.1 m/s)
Visibility: 6 miles ( 9 km)
Ceiling: 22000 feet AGL
Clouds: few clouds at 1300 feet AGL
scattered clouds at 3000 feet AGL
broken clouds at 22000 feet AGL
Weather: no significant weather observed at this time

METAR text: RCKH 160200Z 01006KT 320V070 9000 FEW013 SCT060 BKN220 26/19 Q1020 NOSIG RMK A3012
Conditions at: RCKH (KAOHSIUNG INTL , TW) observed 0200 UTC 16 February 2019
Temperature: 26.0°C (79°F)
Dewpoint: 19.0°C (66°F) [RH = 65%]
Pressure (altimeter): 30.12 inches Hg (1020.0 mb)
Winds: from the N (10 degrees) at 7 MPH (6 knots; 3.1 m/s)
Visibility: 6 miles ( 9 km)
Ceiling: 22000 feet AGL
Clouds: few clouds at 1300 feet AGL
scattered clouds at 6000 feet AGL
broken clouds at 22000 feet AGL
Weather: no significant weather observed at this time

METAR text: RCKH 160130Z 01006KT 320V070 7000 FEW013 BKN230 26/19 Q1020 NOSIG RMK A3013
Conditions at: RCKH (KAOHSIUNG INTL , TW) observed 0130 UTC 16 February 2019
Temperature: 26.0°C (79°F)
Dewpoint: 19.0°C (66°F) [RH = 65%]
Pressure (altimeter): 30.12 inches Hg (1020.0 mb)
Winds: from the N (10 degrees) at 7 MPH (6 knots; 3.1 m/s)
Visibility: 4 miles ( 7 km)
Ceiling: 23000 feet AGL
Clouds: few clouds at 1300 feet AGL
broken clouds at 23000 feet AGL
Weather: no significant weather observed at this time

METAR text: RCKH 160100Z 03006KT 340V050 7000 FEW010 BKN230 25/19 Q1020 NOSIG RMK A3013
Conditions at: RCKH (KAOHSIUNG INTL , TW) observed 0100 UTC 16 February 2019
Temperature: 25.0°C (77°F)
Dewpoint: 19.0°C (66°F) [RH = 69%]
Pressure (altimeter): 30.12 inches Hg (1020.0 mb)
Winds: from the NNE (30 degrees) at 7 MPH (6 knots; 3.1 m/s)
Visibility: 4 miles ( 7 km)
Ceiling: 23000 feet AGL
Clouds: few clouds at 1000 feet AGL
broken clouds at 23000 feet AGL
Weather: no significant weather observed at this time

METAR text: RCKH 160030Z 03008KT 6000 FEW008 BKN230 24/19 Q1020 NOSIG RMK A3013
Conditions at: RCKH (KAOHSIUNG INTL , TW) observed 0030 UTC 16 February 2019
Temperature: 24.0°C (75°F)
Dewpoint: 19.0°C (66°F) [RH = 74%]
Pressure (altimeter): 30.12 inches Hg (1020.0 mb)
Winds: from the NNE (30 degrees) at 9 MPH (8 knots; 4.1 m/s)
Visibility: 4 miles ( 6 km)
Ceiling: 23000 feet AGL
Clouds: few clouds at 800 feet AGL
broken clouds at 23000 feet AGL
Weather: no significant weather observed at this time

METAR text: RCKH 160000Z 02009KT 350V060 6000 FEW008 BKN220 23/19 Q1020 NOSIG RMK A3012
Conditions at: RCKH (KAOHSIUNG INTL , TW) observed 0000 UTC 16 February 2019
Temperature: 23.0°C (73°F)
Dewpoint: 19.0°C (66°F) [RH = 78%]
Pressure (altimeter): 30.12 inches Hg (1020.0 mb)
Winds: from the NNE (20 degrees) at 10 MPH (9 knots; 4.6 m/s)
Visibility: 4 miles ( 6 km)
Ceiling: 22000 feet AGL
Clouds: few clouds at 800 feet AGL
broken clouds at 22000 feet AGL
Weather: no significant weather observed at this time

METAR text: RCKH 152330Z 02007KT 350V050 6000 FEW008 SCT080 BKN220 22/19 Q1020 NOSIG RMK A3012
Conditions at: RCKH (KAOHSIUNG INTL , TW) observed 2330 UTC 15 February 2019
Temperature: 22.0°C (72°F)
Dewpoint: 19.0°C (66°F) [RH = 83%]
Pressure (altimeter): 30.12 inches Hg (1020.0 mb)
Winds: from the NNE (20 degrees) at 8 MPH (7 knots; 3.6 m/s)
Visibility: 4 miles ( 6 km)
Ceiling: 22000 feet AGL
Clouds: few clouds at 800 feet AGL
scattered clouds at 8000 feet AGL
broken clouds at 22000 feet AGL
Weather: no significant weather observed at this time

METAR text: RCKH 152300Z 01004KT 6000 FEW013 SCT080 BKN200 22/19 Q1019 NOSIG RMK A3011
Conditions at: RCKH (KAOHSIUNG INTL , TW) observed 2300 UTC 15 February 2019
Temperature: 22.0°C (72°F)
Dewpoint: 19.0°C (66°F) [RH = 83%]
Pressure (altimeter): 30.09 inches Hg (1019.0 mb)
Winds: from the N (10 degrees) at 5 MPH (4 knots; 2.1 m/s)
Visibility: 4 miles ( 6 km)
Ceiling: 20000 feet AGL
Clouds: few clouds at 1300 feet AGL
scattered clouds at 8000 feet AGL
broken clouds at 20000 feet AGL
Weather: no significant weather observed at this time

METAR text: RCKH 152230Z 02003KT 350V050 8000 FEW013 SCT100 22/19 Q1019 NOSIG RMK A3010
Conditions at: RCKH (KAOHSIUNG INTL , TW) observed 2230 UTC 15 February 2019
Temperature: 22.0°C (72°F)
Dewpoint: 19.0°C (66°F) [RH = 83%]
Pressure (altimeter): 30.09 inches Hg (1019.0 mb)
Winds: from the NNE (20 degrees) at 3 MPH (3 knots; 1.5 m/s)
Visibility: 5 miles ( 8 km)
Ceiling: at least 12,000 feet AGL
Clouds: few clouds at 1300 feet AGL
scattered clouds at 10000 feet AGL
Weather: no significant weather observed at this time

METAR text: RCKH 152200Z 02004KT 9999 FEW013 SCT080 22/18 Q1019 NOSIG RMK A3009
Conditions at: RCKH (KAOHSIUNG INTL , TW) observed 2200 UTC 15 February 2019
Temperature: 22.0°C (72°F)
Dewpoint: 18.0°C (64°F) [RH = 78%]
Pressure (altimeter): 30.09 inches Hg (1019.0 mb)
Winds: from the NNE (20 degrees) at 5 MPH (4 knots; 2.1 m/s)
Visibility: 6 or more miles (10+ km)
Ceiling: at least 12,000 feet AGL
Clouds: few clouds at 1300 feet AGL
scattered clouds at 8000 feet AGL
Weather: no significant weather observed at this time

METAR text: RCKH 152100Z 02005KT 9999 FEW014 SCT080 22/18 Q1018 NOSIG RMK A3007
Conditions at: RCKH (KAOHSIUNG INTL , TW) observed 2100 UTC 15 February 2019
Temperature: 22.0°C (72°F)
Dewpoint: 18.0°C (64°F) [RH = 78%]
Pressure (altimeter): 30.06 inches Hg (1018.0 mb)
Winds: from the NNE (20 degrees) at 6 MPH (5 knots; 2.6 m/s)
Visibility: 6 or more miles (10+ km)
Ceiling: at least 12,000 feet AGL
Clouds: few clouds at 1400 feet AGL
scattered clouds at 8000 feet AGL
Weather: no significant weather observed at this time

METAR text: RCKH 152000Z 06002KT 9999 FEW014 SCT080 21/18 Q1018 NOSIG RMK A3006
Conditions at: RCKH (KAOHSIUNG INTL , TW) observed 2000 UTC 15 February 2019
Temperature: 21.0°C (70°F)
Dewpoint: 18.0°C (64°F) [RH = 83%]
Pressure (altimeter): 30.06 inches Hg (1018.0 mb)
Winds: from the ENE (60 degrees) at 2 MPH (2 knots; 1.0 m/s)
Visibility: 6 or more miles (10+ km)
Ceiling: at least 12,000 feet AGL
Clouds: few clouds at 1400 feet AGL
scattered clouds at 8000 feet AGL
Weather: no significant weather observed at this time

METAR text: RCKH 151900Z 05004KT 9999 FEW015 SCT080 22/18 Q1018 NOSIG RMK A3006
Conditions at: RCKH (KAOHSIUNG INTL , TW) observed 1900 UTC 15 February 2019
Temperature: 22.0°C (72°F)
Dewpoint: 18.0°C (64°F) [RH = 78%]
Pressure (altimeter): 30.06 inches Hg (1018.0 mb)
Winds: from the NE (50 degrees) at 5 MPH (4 knots; 2.1 m/s)
Visibility: 6 or more miles (10+ km)
Ceiling: at least 12,000 feet AGL
Clouds: few clouds at 1500 feet AGL
scattered clouds at 8000 feet AGL
Weather: no significant weather observed at this time

METAR text: RCKH 151800Z 02003KT 320V090 7000 FEW015 SCT080 21/20 Q1018 NOSIG RMK A3008
Conditions at: RCKH (KAOHSIUNG INTL , TW) observed 1800 UTC 15 February 2019
Temperature: 21.0°C (70°F)
Dewpoint: 20.0°C (68°F) [RH = 94%]
Pressure (altimeter): 30.06 inches Hg (1018.0 mb)
Winds: from the NNE (20 degrees) at 3 MPH (3 knots; 1.5 m/s)
Visibility: 4 miles ( 7 km)
Ceiling: at least 12,000 feet AGL
Clouds: few clouds at 1500 feet AGL
scattered clouds at 8000 feet AGL
Weather: no significant weather observed at this time

METAR text: RCKH 151700Z VRB01KT 7000 FEW015 SCT080 22/20 Q1019 NOSIG RMK A3009
Conditions at: RCKH (KAOHSIUNG INTL , TW) observed 1700 UTC 15 February 2019
Temperature: 22.0°C (72°F)
Dewpoint: 20.0°C (68°F) [RH = 88%]
Pressure (altimeter): 30.09 inches Hg (1019.0 mb)
Winds: variable direction winds at 1 MPH (1 knots; 0.5 m/s)
Visibility: 4 miles ( 7 km)
Ceiling: at least 12,000 feet AGL
Clouds: few clouds at 1500 feet AGL
scattered clouds at 8000 feet AGL
Weather: no significant weather observed at this time

METAR text: RCKH 151600Z 08005KT 9000 FEW015 SCT080 22/20 Q1019 NOSIG RMK A3010
Conditions at: RCKH (KAOHSIUNG INTL , TW) observed 1600 UTC 15 February 2019
Temperature: 22.0°C (72°F)
Dewpoint: 20.0°C (68°F) [RH = 88%]
Pressure (altimeter): 30.09 inches Hg (1019.0 mb)
Winds: from the E (80 degrees) at 6 MPH (5 knots; 2.6 m/s)
Visibility: 6 miles ( 9 km)
Ceiling: at least 12,000 feet AGL
Clouds: few clouds at 1500 feet AGL
scattered clouds at 8000 feet AGL
Weather: no significant weather observed at this time

METAR text: RCKH 151530Z 07003KT 040V100 9000 FEW015 SCT090 23/20 Q1019 NOSIG RMK A3011
Conditions at: RCKH (KAOHSIUNG INTL , TW) observed 1530 UTC 15 February 2019
Temperature: 23.0°C (73°F)
Dewpoint: 20.0°C (68°F) [RH = 83%]
Pressure (altimeter): 30.09 inches Hg (1019.0 mb)
Winds: from the ENE (70 degrees) at 3 MPH (3 knots; 1.5 m/s)
Visibility: 6 miles ( 9 km)
Ceiling: at least 12,000 feet AGL
Clouds: few clouds at 1500 feet AGL
scattered clouds at 9000 feet AGL
Weather: no significant weather observed at this time

METAR text: RCKH 151500Z 02003KT 9999 FEW015 SCT100 24/20 Q1020 NOSIG RMK A3012
Conditions at: RCKH (KAOHSIUNG INTL , TW) observed 1500 UTC 15 February 2019
Temperature: 24.0°C (75°F)
Dewpoint: 20.0°C (68°F) [RH = 78%]
Pressure (altimeter): 30.12 inches Hg (1020.0 mb)
Winds: from the NNE (20 degrees) at 3 MPH (3 knots; 1.5 m/s)
Visibility: 6 or more miles (10+ km)
Ceiling: at least 12,000 feet AGL
Clouds: few clouds at 1500 feet AGL
scattered clouds at 10000 feet AGL
Weather: no significant weather observed at this time

METAR text: RCKH 151430Z 04003KT 010V090 9999 FEW015 SCT050 24/20 Q1019 NOSIG RMK A3011
Conditions at: RCKH (KAOHSIUNG INTL , TW) observed 1430 UTC 15 February 2019
Temperature: 24.0°C (75°F)
Dewpoint: 20.0°C (68°F) [RH = 78%]
Pressure (altimeter): 30.09 inches Hg (1019.0 mb)
Winds: from the NE (40 degrees) at 3 MPH (3 knots; 1.5 m/s)
Visibility: 6 or more miles (10+ km)
Ceiling: at least 12,000 feet AGL
Clouds: few clouds at 1500 feet AGL
scattered clouds at 5000 feet AGL
Weather: no significant weather observed at this time

METAR text: RCKH 151400Z 04002KT 9999 FEW015 SCT040 24/20 Q1019 NOSIG RMK A3011
Conditions at: RCKH (KAOHSIUNG INTL , TW) observed 1400 UTC 15 February 2019
Temperature: 24.0°C (75°F)
Dewpoint: 20.0°C (68°F) [RH = 78%]
Pressure (altimeter): 30.09 inches Hg (1019.0 mb)
Winds: from the NE (40 degrees) at 2 MPH (2 knots; 1.0 m/s)
Visibility: 6 or more miles (10+ km)
Ceiling: at least 12,000 feet AGL
Clouds: few clouds at 1500 feet AGL
scattered clouds at 4000 feet AGL
Weather: no significant weather observed at this time

METAR text: RCKH 151330Z 02004KT 360V080 9999 FEW015 SCT032 24/21 Q1019 NOSIG RMK A3011
Conditions at: RCKH (KAOHSIUNG INTL , TW) observed 1330 UTC 15 February 2019
Temperature: 24.0°C (75°F)
Dewpoint: 21.0°C (70°F) [RH = 83%]
Pressure (altimeter): 30.09 inches Hg (1019.0 mb)
Winds: from the NNE (20 degrees) at 5 MPH (4 knots; 2.1 m/s)
Visibility: 6 or more miles (10+ km)
Ceiling: at least 12,000 feet AGL
Clouds: few clouds at 1500 feet AGL
scattered clouds at 3200 feet AGL
Weather: no significant weather observed at this time

METAR text: RCKH 151300Z 02004KT 9999 FEW016 SCT032 24/21 Q1020 NOSIG RMK A3012
Conditions at: RCKH (KAOHSIUNG INTL , TW) observed 1300 UTC 15 February 2019
Temperature: 24.0°C (75°F)
Dewpoint: 21.0°C (70°F) [RH = 83%]
Pressure (altimeter): 30.12 inches Hg (1020.0 mb)
Winds: from the NNE (20 degrees) at 5 MPH (4 knots; 2.1 m/s)
Visibility: 6 or more miles (10+ km)
Ceiling: at least 12,000 feet AGL
Clouds: few clouds at 1600 feet AGL
scattered clouds at 3200 feet AGL
Weather: no significant weather observed at this time

METAR text: RCKH 151230Z 35003KT 320V070 9999 FEW016 SCT035 25/21 Q1020 NOSIG RMK A3012
Conditions at: RCKH (KAOHSIUNG INTL , TW) observed 1230 UTC 15 February 2019
Temperature: 25.0°C (77°F)
Dewpoint: 21.0°C (70°F) [RH = 79%]
Pressure (altimeter): 30.12 inches Hg (1020.0 mb)
Winds: from the N (350 degrees) at 3 MPH (3 knots; 1.5 m/s)
Visibility: 6 or more miles (10+ km)
Ceiling: at least 12,000 feet AGL
Clouds: few clouds at 1600 feet AGL
scattered clouds at 3500 feet AGL
Weather: no significant weather observed at this time

METAR text: RCKH 151200Z 01003KT 320V080 9999 FEW016 SCT038 25/21 Q1019 NOSIG RMK A3011
Conditions at: RCKH (KAOHSIUNG INTL , TW) observed 1200 UTC 15 February 2019
Temperature: 25.0°C (77°F)
Dewpoint: 21.0°C (70°F) [RH = 79%]
Pressure (altimeter): 30.09 inches Hg (1019.0 mb)
Winds: from the N (10 degrees) at 3 MPH (3 knots; 1.5 m/s)
Visibility: 6 or more miles (10+ km)
Ceiling: at least 12,000 feet AGL
Clouds: few clouds at 1600 feet AGL
scattered clouds at 3800 feet AGL
Weather: no significant weather observed at this time

METAR text: RCKH 151130Z 32003KT 280V360 9999 FEW016 SCT035 24/21 Q1019 NOSIG RMK A3009
Conditions at: RCKH (KAOHSIUNG INTL , TW) observed 1130 UTC 15 February 2019
Temperature: 24.0°C (75°F)
Dewpoint: 21.0°C (70°F) [RH = 83%]
Pressure (altimeter): 30.09 inches Hg (1019.0 mb)
Winds: from the NW (320 degrees) at 3 MPH (3 knots; 1.5 m/s)
Visibility: 6 or more miles (10+ km)
Ceiling: at least 12,000 feet AGL
Clouds: few clouds at 1600 feet AGL
scattered clouds at 3500 feet AGL
Weather: no significant weather observed at this time

METAR text: RCKH 151100Z 31003KT 280V340 9999 FEW016 SCT035 24/21 Q1018 NOSIG RMK A3008
Conditions at: RCKH (KAOHSIUNG INTL , TW) observed 1100 UTC 15 February 2019
Temperature: 24.0°C (75°F)
Dewpoint: 21.0°C (70°F) [RH = 83%]
Pressure (altimeter): 30.06 inches Hg (1018.0 mb)
Winds: from the NW (310 degrees) at 3 MPH (3 knots; 1.5 m/s)
Visibility: 6 or more miles (10+ km)
Ceiling: at least 12,000 feet AGL
Clouds: few clouds at 1600 feet AGL
scattered clouds at 3500 feet AGL
Weather: no significant weather observed at this time

METAR text: RCKH 151030Z 29004KT 260V330 9999 FEW015 SCT032 25/21 Q1018 NOSIG RMK A3008
Conditions at: RCKH (KAOHSIUNG INTL , TW) observed 1030 UTC 15 February 2019
Temperature: 25.0°C (77°F)
Dewpoint: 21.0°C (70°F) [RH = 79%]
Pressure (altimeter): 30.06 inches Hg (1018.0 mb)
Winds: from the WNW (290 degrees) at 5 MPH (4 knots; 2.1 m/s)
Visibility: 6 or more miles (10+ km)
Ceiling: at least 12,000 feet AGL
Clouds: few clouds at 1500 feet AGL
scattered clouds at 3200 feet AGL
Weather: no significant weather observed at this time

METAR text: RCKH 151000Z 28006KT 9999 FEW015 SCT032 25/21 Q1018 NOSIG RMK A3006
Conditions at: RCKH (KAOHSIUNG INTL , TW) observed 1000 UTC 15 February 2019
Temperature: 25.0°C (77°F)
Dewpoint: 21.0°C (70°F) [RH = 79%]
Pressure (altimeter): 30.06 inches Hg (1018.0 mb)
Winds: from the W (280 degrees) at 7 MPH (6 knots; 3.1 m/s)
Visibility: 6 or more miles (10+ km)
Ceiling: at least 12,000 feet AGL
Clouds: few clouds at 1500 feet AGL
scattered clouds at 3200 feet AGL
Weather: no significant weather observed at this time

METAR text: RCKH 150930Z 28006KT 260V320 9999 FEW015 SCT030 BKN250 26/21 Q1018 NOSIG RMK A3006
Conditions at: RCKH (KAOHSIUNG INTL , TW) observed 0930 UTC 15 February 2019
Temperature: 26.0°C (79°F)
Dewpoint: 21.0°C (70°F) [RH = 74%]
Pressure (altimeter): 30.06 inches Hg (1018.0 mb)
Winds: from the W (280 degrees) at 7 MPH (6 knots; 3.1 m/s)
Visibility: 6 or more miles (10+ km)
Ceiling: 25000 feet AGL
Clouds: few clouds at 1500 feet AGL
scattered clouds at 3000 feet AGL
broken clouds at 25000 feet AGL
Weather: no significant weather observed at this time

METAR text: RCKH 150912Z 27006KT 230V300 9999 FEW014 SCT025 26/21 Q1018 NOSIG RMK A3006
Conditions at: RCKH (KAOHSIUNG INTL , TW) observed 0912 UTC 15 February 2019
Temperature: 26.0°C (79°F)
Dewpoint: 21.0°C (70°F) [RH = 74%]
Pressure (altimeter): 30.06 inches Hg (1018.0 mb)
Winds: from the W (270 degrees) at 7 MPH (6 knots; 3.1 m/s)
Visibility: 6 or more miles (10+ km)
Ceiling: at least 12,000 feet AGL
Clouds: few clouds at 1400 feet AGL
scattered clouds at 2500 feet AGL
Weather: no significant weather observed at this time

METAR text: RCKH 150900Z 28006KT 230V360 9999 FEW014 SCT025 26/21 Q1018 WS R09 NOSIG RMK A3006
Conditions at: RCKH (KAOHSIUNG INTL , TW) observed 0900 UTC 15 February 2019
Temperature: 26.0°C (79°F)
Dewpoint: 21.0°C (70°F) [RH = 74%]
Pressure (altimeter): 30.06 inches Hg (1018.0 mb)
Winds: from the W (280 degrees) at 7 MPH (6 knots; 3.1 m/s)
Visibility: 6 or more miles (10+ km)
Ceiling: at least 12,000 feet AGL
Clouds: few clouds at 1400 feet AGL
scattered clouds at 2500 feet AGL
Weather: no significant weather observed at this time

METAR text: RCKH 150839Z 25007KT 210V300 9999 FEW015 SCT028 26/21 Q1017 WS R09 NOSIG RMK A3005
Conditions at: RCKH (KAOHSIUNG INTL , TW) observed 0839 UTC 15 February 2019
Temperature: 26.0°C (79°F)
Dewpoint: 21.0°C (70°F) [RH = 74%]
Pressure (altimeter): 30.03 inches Hg (1017.0 mb)
Winds: from the WSW (250 degrees) at 8 MPH (7 knots; 3.6 m/s)
Visibility: 6 or more miles (10+ km)
Ceiling: at least 12,000 feet AGL
Clouds: few clouds at 1500 feet AGL
scattered clouds at 2800 feet AGL
Weather: no significant weather observed at this time

METAR text: RCKH 150830Z 27007KT 210V310 9999 FEW015 SCT028 27/21 Q1017 NOSIG RMK A3005
Conditions at: RCKH (KAOHSIUNG INTL , TW) observed 0830 UTC 15 February 2019
Temperature: 27.0°C (81°F)
Dewpoint: 21.0°C (70°F) [RH = 70%]
Pressure (altimeter): 30.03 inches Hg (1017.0 mb)
Winds: from the W (270 degrees) at 8 MPH (7 knots; 3.6 m/s)
Visibility: 6 or more miles (10+ km)
Ceiling: at least 12,000 feet AGL
Clouds: few clouds at 1500 feet AGL
scattered clouds at 2800 feet AGL
Weather: no significant weather observed at this time

METAR text: RCKH 150800Z 24006KT 190V290 9999 FEW015 SCT028 27/21 Q1017 NOSIG RMK A3005
Conditions at: RCKH (KAOHSIUNG INTL , TW) observed 0800 UTC 15 February 2019
Temperature: 27.0°C (81°F)
Dewpoint: 21.0°C (70°F) [RH = 70%]
Pressure (altimeter): 30.03 inches Hg (1017.0 mb)
Winds: from the WSW (240 degrees) at 7 MPH (6 knots; 3.1 m/s)
Visibility: 6 or more miles (10+ km)
Ceiling: at least 12,000 feet AGL
Clouds: few clouds at 1500 feet AGL
scattered clouds at 2800 feet AGL
Weather: no significant weather observed at this time

METAR text: RCKH 150730Z 24008KT 200V290 9999 FEW016 SCT030 27/20 Q1017 NOSIG RMK A3005
Conditions at: RCKH (KAOHSIUNG INTL , TW) observed 0730 UTC 15 February 2019
Temperature: 27.0°C (81°F)
Dewpoint: 20.0°C (68°F) [RH = 66%]
Pressure (altimeter): 30.03 inches Hg (1017.0 mb)
Winds: from the WSW (240 degrees) at 9 MPH (8 knots; 4.1 m/s)
Visibility: 6 or more miles (10+ km)
Ceiling: at least 12,000 feet AGL
Clouds: few clouds at 1600 feet AGL
scattered clouds at 3000 feet AGL
Weather: no significant weather observed at this time

METAR text: RCKH 150700Z 22008KT 180V270 9999 FEW016 SCT030 27/20 Q1017 NOSIG RMK A3005
Conditions at: RCKH (KAOHSIUNG INTL , TW) observed 0700 UTC 15 February 2019
Temperature: 27.0°C (81°F)
Dewpoint: 20.0°C (68°F) [RH = 66%]
Pressure (altimeter): 30.03 inches Hg (1017.0 mb)
Winds: from the SW (220 degrees) at 9 MPH (8 knots; 4.1 m/s)
Visibility: 6 or more miles (10+ km)
Ceiling: at least 12,000 feet AGL
Clouds: few clouds at 1600 feet AGL
scattered clouds at 3000 feet AGL
Weather: no significant weather observed at this time

METAR text: RCKH 150630Z 22008KT 160V300 9000 FEW016 SCT030 BKN200 28/21 Q1018 NOSIG RMK A3006
Conditions at: RCKH (KAOHSIUNG INTL , TW) observed 0630 UTC 15 February 2019
Temperature: 28.0°C (82°F)
Dewpoint: 21.0°C (70°F) [RH = 66%]
Pressure (altimeter): 30.06 inches Hg (1018.0 mb)
Winds: from the SW (220 degrees) at 9 MPH (8 knots; 4.1 m/s)
Visibility: 6 miles ( 9 km)
Ceiling: 20000 feet AGL
Clouds: few clouds at 1600 feet AGL
scattered clouds at 3000 feet AGL
broken clouds at 20000 feet AGL
Weather: no significant weather observed at this time

METAR text: RCKH 150600Z 22008KT 150V250 9000 FEW015 SCT030 BKN200 27/20 Q1018 NOSIG RMK A3006
Conditions at: RCKH (KAOHSIUNG INTL , TW) observed 0600 UTC 15 February 2019
Temperature: 27.0°C (81°F)
Dewpoint: 20.0°C (68°F) [RH = 66%]
Pressure (altimeter): 30.06 inches Hg (1018.0 mb)
Winds: from the SW (220 degrees) at 9 MPH (8 knots; 4.1 m/s)
Visibility: 6 miles ( 9 km)
Ceiling: 20000 feet AGL
Clouds: few clouds at 1500 feet AGL
scattered clouds at 3000 feet AGL
broken clouds at 20000 feet AGL
Weather: no significant weather observed at this time

METAR text: RCKH 150530Z 25008KT 190V300 9000 FEW015 SCT030 BKN200 28/20 Q1018 NOSIG RMK A3008
Conditions at: RCKH (KAOHSIUNG INTL , TW) observed 0530 UTC 15 February 2019
Temperature: 28.0°C (82°F)
Dewpoint: 20.0°C (68°F) [RH = 62%]
Pressure (altimeter): 30.06 inches Hg (1018.0 mb)
Winds: from the WSW (250 degrees) at 9 MPH (8 knots; 4.1 m/s)
Visibility: 6 miles ( 9 km)
Ceiling: 20000 feet AGL
Clouds: few clouds at 1500 feet AGL
scattered clouds at 3000 feet AGL
broken clouds at 20000 feet AGL
Weather: no significant weather observed at this time

METAR text: RCKH 150500Z 22007KT 160V260 9999 FEW015 SCT035 BKN200 27/19 Q1019 NOSIG RMK A3009
Conditions at: RCKH (KAOHSIUNG INTL , TW) observed 0500 UTC 15 February 2019
Temperature: 27.0°C (81°F)
Dewpoint: 19.0°C (66°F) [RH = 62%]
Pressure (altimeter): 30.09 inches Hg (1019.0 mb)
Winds: from the SW (220 degrees) at 8 MPH (7 knots; 3.6 m/s)
Visibility: 6 or more miles (10+ km)
Ceiling: 20000 feet AGL
Clouds: few clouds at 1500 feet AGL
scattered clouds at 3500 feet AGL
broken clouds at 20000 feet AGL
Weather: no significant weather observed at this time

METAR text: RCKH 150430Z 18012KT 150V220 9999 FEW015 SCT035 27/19 Q1019 NOSIG RMK A3010
Conditions at: RCKH (KAOHSIUNG INTL , TW) observed 0430 UTC 15 February 2019
Temperature: 27.0°C (81°F)
Dewpoint: 19.0°C (66°F) [RH = 62%]
Pressure (altimeter): 30.09 inches Hg (1019.0 mb)
Winds: from the S (180 degrees) at 14 MPH (12 knots; 6.2 m/s)
Visibility: 6 or more miles (10+ km)
Ceiling: at least 12,000 feet AGL
Clouds: few clouds at 1500 feet AGL
scattered clouds at 3500 feet AGL
Weather: no significant weather observed at this time

METAR text: RCKH 150400Z 19010KT 150V230 9999 FEW015 SCT035 27/19 Q1020 NOSIG RMK A3012
Conditions at: RCKH (KAOHSIUNG INTL , TW) observed 0400 UTC 15 February 2019
Temperature: 27.0°C (81°F)
Dewpoint: 19.0°C (66°F) [RH = 62%]
Pressure (altimeter): 30.12 inches Hg (1020.0 mb)
Winds: from the S (190 degrees) at 12 MPH (10 knots; 5.1 m/s)
Visibility: 6 or more miles (10+ km)
Ceiling: at least 12,000 feet AGL
Clouds: few clouds at 1500 feet AGL
scattered clouds at 3500 feet AGL
Weather: no significant weather observed at this time

METAR text: RCKH 150330Z 17009KT 120V270 9999 FEW015 SCT035 BKN070 27/19 Q1020 NOSIG RMK A3013
Conditions at: RCKH (KAOHSIUNG INTL , TW) observed 0330 UTC 15 February 2019
Temperature: 27.0°C (81°F)
Dewpoint: 19.0°C (66°F) [RH = 62%]
Pressure (altimeter): 30.12 inches Hg (1020.0 mb)
Winds: from the S (170 degrees) at 10 MPH (9 knots; 4.6 m/s)
Visibility: 6 or more miles (10+ km)
Ceiling: 7000 feet AGL
Clouds: few clouds at 1500 feet AGL
scattered clouds at 3500 feet AGL
broken clouds at 7000 feet AGL
Weather: no significant weather observed at this time

METAR text: RCKH 150300Z 31003KT 230V340 5000 HZ FEW015 SCT035 BKN070 27/19 Q1020 NOSIG RMK A3014
Conditions at: RCKH (KAOHSIUNG INTL , TW) observed 0300 UTC 15 February 2019
Temperature: 27.0°C (81°F)
Dewpoint: 19.0°C (66°F) [RH = 62%]
Pressure (altimeter): 30.12 inches Hg (1020.0 mb)
Winds: from the NW (310 degrees) at 3 MPH (3 knots; 1.5 m/s)
Visibility: 3 miles ( 5 km)
Ceiling: 7000 feet AGL
Clouds: few clouds at 1500 feet AGL
scattered clouds at 3500 feet AGL
broken clouds at 7000 feet AGL
Weather: HZ  (haze)

METAR text: RCKH 150254Z 30003KT 230V340 5000 HZ FEW015 SCT035 BKN070 27/19 Q1020 NOSIG RMK A3014
Conditions at: RCKH (KAOHSIUNG INTL , TW) observed 0254 UTC 15 February 2019
Temperature: 27.0°C (81°F)
Dewpoint: 19.0°C (66°F) [RH = 62%]
Pressure (altimeter): 30.12 inches Hg (1020.0 mb)
Winds: from the WNW (300 degrees) at 3 MPH (3 knots; 1.5 m/s)
Visibility: 3 miles ( 5 km)
Ceiling: 7000 feet AGL
Clouds: few clouds at 1500 feet AGL
scattered clouds at 3500 feet AGL
broken clouds at 7000 feet AGL
Weather: HZ  (haze)

METAR text: RCKH 150230Z 32003KT 260V010 4500 HZ FEW015 SCT035 BKN100 26/19 Q1021 TEMPO 5000 HZ RMK A3016
Conditions at: RCKH (KAOHSIUNG INTL , TW) observed 0230 UTC 15 February 2019
Temperature: 26.0°C (79°F)
Dewpoint: 19.0°C (66°F) [RH = 65%]
Pressure (altimeter): 30.15 inches Hg (1021.0 mb)
Winds: from the NW (320 degrees) at 3 MPH (3 knots; 1.5 m/s)
Visibility: 2.80 miles (4.51 km)
Ceiling: 10000 feet AGL
Clouds: few clouds at 1500 feet AGL
scattered clouds at 3500 feet AGL
broken clouds at 10000 feet AGL
Weather: HZ  (haze)

METAR text: RCKH 150200Z VRB02KT 4000 HZ FEW013 SCT035 BKN070 25/19 Q1021 TEMPO 5000 HZ RMK A3017
Conditions at: RCKH (KAOHSIUNG INTL , TW) observed 0200 UTC 15 February 2019
Temperature: 25.0°C (77°F)
Dewpoint: 19.0°C (66°F) [RH = 69%]
Pressure (altimeter): 30.15 inches Hg (1021.0 mb)
Winds: variable direction winds at 2 MPH (2 knots; 1.0 m/s)
Visibility: 2.49 miles (4.01 km)
Ceiling: 7000 feet AGL
Clouds: few clouds at 1300 feet AGL
scattered clouds at 3500 feet AGL
broken clouds at 7000 feet AGL
Weather: HZ  (haze)

METAR text: RCKH 150130Z 04004KT 350V110 3500 HZ FEW013 SCT100 24/19 Q1021 NOSIG RMK A3017
Conditions at: RCKH (KAOHSIUNG INTL , TW) observed 0130 UTC 15 February 2019
Temperature: 24.0°C (75°F)
Dewpoint: 19.0°C (66°F) [RH = 74%]
Pressure (altimeter): 30.15 inches Hg (1021.0 mb)
Winds: from the NE (40 degrees) at 5 MPH (4 knots; 2.1 m/s)
Visibility: 2.17 miles (3.49 km)
Ceiling: at least 12,000 feet AGL
Clouds: few clouds at 1300 feet AGL
scattered clouds at 10000 feet AGL
Weather: HZ  (haze)

METAR text: RCKH 150100Z 04004KT 340V100 3200 HZ FEW013 SCT100 23/19 Q1021 NOSIG RMK A3017
Conditions at: RCKH (KAOHSIUNG INTL , TW) observed 0100 UTC 15 February 2019
Temperature: 23.0°C (73°F)
Dewpoint: 19.0°C (66°F) [RH = 78%]
Pressure (altimeter): 30.15 inches Hg (1021.0 mb)
Winds: from the NE (40 degrees) at 5 MPH (4 knots; 2.1 m/s)
Visibility: 1.99 miles (3.20 km)
Ceiling: at least 12,000 feet AGL
Clouds: few clouds at 1300 feet AGL
scattered clouds at 10000 feet AGL
Weather: HZ  (haze)

METAR text: RCKH 150030Z 01005KT 340V050 3200 HZ FEW013 SCT120 22/19 Q1021 NOSIG RMK A3016
Conditions at: RCKH (KAOHSIUNG INTL , TW) observed 0030 UTC 15 February 2019
Temperature: 22.0°C (72°F)
Dewpoint: 19.0°C (66°F) [RH = 83%]
Pressure (altimeter): 30.15 inches Hg (1021.0 mb)
Winds: from the N (10 degrees) at 6 MPH (5 knots; 2.6 m/s)
Visibility: 1.99 miles (3.20 km)
Ceiling: at least 12,000 feet AGL
Clouds: few clouds at 1300 feet AGL
scattered clouds at 12000 feet AGL
Weather: HZ  (haze)

METAR text: RCKH 150000Z 01004KT 320V070 2500 BR FEW010 SCT120 22/19 Q1021 NOSIG RMK A3016
Conditions at: RCKH (KAOHSIUNG INTL , TW) observed 0000 UTC 15 February 2019
Temperature: 22.0°C (72°F)
Dewpoint: 19.0°C (66°F) [RH = 83%]
Pressure (altimeter): 30.15 inches Hg (1021.0 mb)
Winds: from the N (10 degrees) at 5 MPH (4 knots; 2.1 m/s)
Visibility: 1.55 miles (2.49 km)
Ceiling: at least 12,000 feet AGL
Clouds: few clouds at 1000 feet AGL
scattered clouds at 12000 feet AGL
Weather: BR  (mist)

METAR text: RCKH 142330Z 36004KT 330V070 2500 BR FEW010 SCT080 21/19 Q1021 NOSIG RMK A3016
Conditions at: RCKH (KAOHSIUNG INTL , TW) observed 2330 UTC 14 February 2019
Temperature: 21.0°C (70°F)
Dewpoint: 19.0°C (66°F) [RH = 88%]
Pressure (altimeter): 30.15 inches Hg (1021.0 mb)
Winds: from the N (360 degrees) at 5 MPH (4 knots; 2.1 m/s)
Visibility: 1.55 miles (2.49 km)
Ceiling: at least 12,000 feet AGL
Clouds: few clouds at 1000 feet AGL
scattered clouds at 8000 feet AGL
Weather: BR  (mist)

METAR text: RCKH 142308Z 35006KT 330V050 2500 BR FEW006 SCT025 BKN050 21/19 Q1021 NOSIG RMK A3015
Conditions at: RCKH (KAOHSIUNG INTL , TW) observed 2308 UTC 14 February 2019
Temperature: 21.0°C (70°F)
Dewpoint: 19.0°C (66°F) [RH = 88%]
Pressure (altimeter): 30.15 inches Hg (1021.0 mb)
Winds: from the N (350 degrees) at 7 MPH (6 knots; 3.1 m/s)
Visibility: 1.55 miles (2.49 km)
Ceiling: 5000 feet AGL
Clouds: few clouds at 600 feet AGL
scattered clouds at 2500 feet AGL
broken clouds at 5000 feet AGL
Weather: BR  (mist)

METAR text: RCKH 142300Z 36004KT 320V030 3500 BR FEW014 SCT025 BKN050 20/18 Q1021 NOSIG RMK A3015
Conditions at: RCKH (KAOHSIUNG INTL , TW) observed 2300 UTC 14 February 2019
Temperature: 20.0°C (68°F)
Dewpoint: 18.0°C (64°F) [RH = 88%]
Pressure (altimeter): 30.15 inches Hg (1021.0 mb)
Winds: from the N (360 degrees) at 5 MPH (4 knots; 2.1 m/s)
Visibility: 2.17 miles (3.49 km)
Ceiling: 5000 feet AGL
Clouds: few clouds at 1400 feet AGL
scattered clouds at 2500 feet AGL
broken clouds at 5000 feet AGL
Weather: BR  (mist)

METAR text: RCKH 142230Z 01006KT 330V040 3500 BR FEW014 SCT025 BKN050 20/18 Q1020 NOSIG RMK A3014
Conditions at: RCKH (KAOHSIUNG INTL , TW) observed 2230 UTC 14 February 2019
Temperature: 20.0°C (68°F)
Dewpoint: 18.0°C (64°F) [RH = 88%]
Pressure (altimeter): 30.12 inches Hg (1020.0 mb)
Winds: from the N (10 degrees) at 7 MPH (6 knots; 3.1 m/s)
Visibility: 2.17 miles (3.49 km)
Ceiling: 5000 feet AGL
Clouds: few clouds at 1400 feet AGL
scattered clouds at 2500 feet AGL
broken clouds at 5000 feet AGL
Weather: BR  (mist)

METAR text: RCKH 142200Z 36005KT 320V030 4000 BR FEW014 SCT025 BKN050 20/18 Q1020 NOSIG RMK A3013
Conditions at: RCKH (KAOHSIUNG INTL , TW) observed 2200 UTC 14 February 2019
Temperature: 20.0°C (68°F)
Dewpoint: 18.0°C (64°F) [RH = 88%]
Pressure (altimeter): 30.12 inches Hg (1020.0 mb)
Winds: from the N (360 degrees) at 6 MPH (5 knots; 2.6 m/s)
Visibility: 2.49 miles (4.01 km)
Ceiling: 5000 feet AGL
Clouds: few clouds at 1400 feet AGL
scattered clouds at 2500 feet AGL
broken clouds at 5000 feet AGL
Weather: BR  (mist)

METAR text: RCKH 142100Z 01004KT 340V040 4000 BR FEW014 SCT025 BKN050 21/18 Q1019 NOSIG RMK A3011
Conditions at: RCKH (KAOHSIUNG INTL , TW) observed 2100 UTC 14 February 2019
Temperature: 21.0°C (70°F)
Dewpoint: 18.0°C (64°F) [RH = 83%]
Pressure (altimeter): 30.09 inches Hg (1019.0 mb)
Winds: from the N (10 degrees) at 5 MPH (4 knots; 2.1 m/s)
Visibility: 2.49 miles (4.01 km)
Ceiling: 5000 feet AGL
Clouds: few clouds at 1400 feet AGL
scattered clouds at 2500 feet AGL
broken clouds at 5000 feet AGL
Weather: BR  (mist)

METAR text: RCKH 142000Z 01004KT 340V040 4000 BR FEW014 SCT025 BKN050 21/18 Q1019 NOSIG RMK A3011
Conditions at: RCKH (KAOHSIUNG INTL , TW) observed 2000 UTC 14 February 2019
Temperature: 21.0°C (70°F)
Dewpoint: 18.0°C (64°F) [RH = 83%]
Pressure (altimeter): 30.09 inches Hg (1019.0 mb)
Winds: from the N (10 degrees) at 5 MPH (4 knots; 2.1 m/s)
Visibility: 2.49 miles (4.01 km)
Ceiling: 5000 feet AGL
Clouds: few clouds at 1400 feet AGL
scattered clouds at 2500 feet AGL
broken clouds at 5000 feet AGL
Weather: BR  (mist)

METAR text: RCKH 141900Z 02004KT 4000 BR FEW014 SCT025 BKN050 22/19 Q1020 NOSIG RMK A3012
Conditions at: RCKH (KAOHSIUNG INTL , TW) observed 1900 UTC 14 February 2019
Temperature: 22.0°C (72°F)
Dewpoint: 19.0°C (66°F) [RH = 83%]
Pressure (altimeter): 30.12 inches Hg (1020.0 mb)
Winds: from the NNE (20 degrees) at 5 MPH (4 knots; 2.1 m/s)
Visibility: 2.49 miles (4.01 km)
Ceiling: 5000 feet AGL
Clouds: few clouds at 1400 feet AGL
scattered clouds at 2500 feet AGL
broken clouds at 5000 feet AGL
Weather: BR  (mist)

METAR text: RCKH 141800Z 36004KT 320V030 4000 BR FEW014 SCT025 BKN050 22/19 Q1020 NOSIG RMK A3012
Conditions at: RCKH (KAOHSIUNG INTL , TW) observed 1800 UTC 14 February 2019
Temperature: 22.0°C (72°F)
Dewpoint: 19.0°C (66°F) [RH = 83%]
Pressure (altimeter): 30.12 inches Hg (1020.0 mb)
Winds: from the N (360 degrees) at 5 MPH (4 knots; 2.1 m/s)
Visibility: 2.49 miles (4.01 km)
Ceiling: 5000 feet AGL
Clouds: few clouds at 1400 feet AGL
scattered clouds at 2500 feet AGL
broken clouds at 5000 feet AGL
Weather: BR  (mist)

METAR text: RCKH 141741Z 36005KT 4000 BR FEW014 SCT025 BKN050 22/19 Q1020 NOSIG RMK A3012
Conditions at: RCKH (KAOHSIUNG INTL , TW) observed 1741 UTC 14 February 2019
Temperature: 22.0°C (72°F)
Dewpoint: 19.0°C (66°F) [RH = 83%]
Pressure (altimeter): 30.12 inches Hg (1020.0 mb)
Winds: from the N (360 degrees) at 6 MPH (5 knots; 2.6 m/s)
Visibility: 2.49 miles (4.01 km)
Ceiling: 5000 feet AGL
Clouds: few clouds at 1400 feet AGL
scattered clouds at 2500 feet AGL
broken clouds at 5000 feet AGL
Weather: BR  (mist)

METAR text: RCKH 141700Z 01004KT 330V040 6000 FEW014 SCT025 BKN050 22/19 Q1020 NOSIG RMK A3014
Conditions at: RCKH (KAOHSIUNG INTL , TW) observed 1700 UTC 14 February 2019
Temperature: 22.0°C (72°F)
Dewpoint: 19.0°C (66°F) [RH = 83%]
Pressure (altimeter): 30.12 inches Hg (1020.0 mb)
Winds: from the N (10 degrees) at 5 MPH (4 knots; 2.1 m/s)
Visibility: 4 miles ( 6 km)
Ceiling: 5000 feet AGL
Clouds: few clouds at 1400 feet AGL
scattered clouds at 2500 feet AGL
broken clouds at 5000 feet AGL
Weather: no significant weather observed at this time

Forecast for: RCKH (KAOHSIUNG INTL , TW)
Text: TAF RCKH 152300Z 1600/1706 32005KT 8000 FEW015 BKN032
Forecast period: 0000 to 1000 UTC 16 February 2019
Forecast type: FROM: standard forecast or significant change
Winds: from the NW (320 degrees) at 6 MPH (5 knots; 2.6 m/s)
Visibility: 5 miles (8 km)
Ceiling: 3200 feet AGL
Clouds: few clouds at 1500 feet AGL
broken clouds at 3200 feet AGL
Weather: no significant weather forecast for this period
Text: TEMPO 1600/1603 03005KT 5000 BR
Forecast period: 0000 to 0300 UTC 16 February 2019
Forecast type: TEMPORARY: The following changes expected for less than half the time period
Winds: from the NNE (30 degrees) at 6 MPH (5 knots; 2.6 m/s)
Visibility: 3 miles (5 km)
Ceiling: unknown
Clouds: missing
Weather: BR  (mist)
Text: TEMPO 1605/1610 34010KT 5000 RA FEW012 BKN022 BKN040
Forecast period: 0500 to 1000 UTC 16 February 2019
Forecast type: TEMPORARY: The following changes expected for less than half the time period
Winds: from the NNW (340 degrees) at 12 MPH (10 knots; 5.1 m/s)
Visibility: 3 miles (5 km)
Ceiling: 2200 feet AGL
Clouds: few clouds at 1200 feet AGL
broken clouds at 2200 feet AGL
broken clouds at 4000 feet AGL
Weather: RA  (moderate rain)
Text: BECMG 1610/1612 01005KT
Forecast period: 1000 UTC 16 February 2019 to 0100 UTC 17 February 2019
Forecast type: BECOMING: Conditions expected to become as follows by 1200 UTC 16 February 2019
Winds: from the N (10 degrees) at 6 MPH (5 knots; 2.6 m/s)
Visibility: 5 miles (8 km)
Ceiling: 3200 feet AGL
Clouds: few clouds at 1500 feet AGL
broken clouds at 3200 feet AGL
Weather: no significant weather forecast for this period
Text: TEMPO 1620/1701 4000 BR
Forecast period: 2000 UTC 16 February 2019 to 0100 UTC 17 February 2019
Forecast type: TEMPORARY: The following changes expected for less than half the time period
Visibility: 2.49 miles (4.01 km)
Ceiling: unknown
Clouds: missing
Weather: BR  (mist)
Text: BECMG 1701/1703 31005KT
Forecast period: 0100 to 0600 UTC 17 February 2019
Forecast type: BECOMING: Conditions expected to become as follows by 0300 UTC 17 February 2019
Winds: from the NW (310 degrees) at 6 MPH (5 knots; 2.6 m/s)
Visibility: 5 miles (8 km)
Ceiling: 3200 feet AGL
Clouds: few clouds at 1500 feet AGL
broken clouds at 3200 feet AGL
Weather: no significant weather forecast for this period